Time;durP1;ratioP1;P1;durP2;ratioP2;P2;SDS_P1;SDS_P2;PMS_P1;PMS_P2;Temp;Humidity;BMP_temperature;BMP_pressure;BME280_temperature;BME280_humidity;BME280_pressure;Samples;Min_cycle;Max_cycle;Signal;HPM_P1;HPM_P2
2021/07/20 00:00:15;;;;;;;35.38;18.77;;;;;;;14.63;89.59;99138.47;5047858;28;20017;-67
2021/07/20 00:02:46;;;;;;;33.13;18.80;;;;;;;14.64;88.81;99140.19;5063567;28;20228;-67
2021/07/20 00:05:13;;;;;;;36.90;20.80;;;;;;;14.51;89.21;99129.06;5066616;28;20378;-67
2021/07/20 00:07:40;;;;;;;37.00;21.08;;;;;;;14.34;90.48;99141.03;5064203;28;20090;-67
2021/07/20 00:10:14;;;;;;;41.17;22.30;;;;;;;14.35;90.64;99179.84;5050634;28;20021;-67
2021/07/20 00:12:40;;;;;;;34.35;19.15;;;;;;;14.13;90.54;99211.25;5049963;28;20017;-67
2021/07/20 00:15:09;;;;;;;38.15;21.88;;;;;;;14.16;90.94;99226.19;5049931;28;20016;-67
2021/07/20 00:17:36;;;;;;;37.75;21.48;;;;;;;14.23;90.93;99247.22;5054932;28;20371;-67
2021/07/20 00:20:04;;;;;;;35.03;22.38;;;;;;;14.28;90.88;99257.69;5061517;28;20017;-67
2021/07/20 00:22:30;;;;;;;34.42;20.70;;;;;;;14.35;90.62;99273.41;5062706;28;20223;-67
2021/07/20 00:24:55;;;;;;;39.00;22.30;;;;;;;14.39;90.14;99295.38;5053290;28;20092;-67
2021/07/20 00:27:20;;;;;;;40.75;20.45;;;;;;;14.35;90.34;99269.88;5050584;28;20014;-67
2021/07/20 00:29:46;;;;;;;32.83;20.50;;;;;;;14.23;90.52;99246.34;5048416;28;20036;-67
2021/07/20 00:32:11;;;;;;;37.30;22.73;;;;;;;14.25;90.33;99269.25;5051703;28;20067;-68
2021/07/20 00:34:38;;;;;;;35.97;20.42;;;;;;;14.17;90.35;99255.28;5047956;28;20014;-68
2021/07/20 00:37:05;;;;;;;40.72;20.23;;;;;;;14.25;89.96;99249.81;5051210;28;20053;-68
2021/07/20 00:39:30;;;;;;;35.55;19.20;;;;;;;14.10;90.13;99253.69;5061157;28;20017;-68
2021/07/20 00:41:56;;;;;;;35.50;20.13;;;;;;;14.00;90.06;99230.09;5062716;28;20067;-67
2021/07/20 00:44:21;;;;;;;37.70;19.85;;;;;;;13.93;90.45;99249.69;5050779;28;20079;-67
2021/07/20 00:46:46;;;;;;;40.92;20.58;;;;;;;13.83;90.97;99290.50;5050704;28;20368;-67
2021/07/20 00:49:12;;;;;;;33.90;19.67;;;;;;;13.90;90.87;99316.78;5059799;28;20044;-67
2021/07/20 00:51:37;;;;;;;31.13;18.75;;;;;;;13.95;90.19;99335.22;5059332;28;20252;-67
2021/07/20 00:54:03;;;;;;;36.80;21.05;;;;;;;13.72;90.54;99343.63;5052820;28;20017;-67
2021/07/20 00:56:29;;;;;;;37.85;20.73;;;;;;;13.65;90.83;99323.50;5049834;28;20088;-67
2021/07/20 00:58:55;;;;;;;37.17;20.90;;;;;;;13.69;91.07;99358.69;5051432;28;20108;-67
2021/07/20 01:01:21;;;;;;;39.30;21.27;;;;;;;13.64;90.96;99387.03;5053620;28;20308;-67
2021/07/20 01:03:46;;;;;;;34.47;18.52;;;;;;;13.75;90.41;99408.84;5060554;28;20013;-67
2021/07/20 01:06:12;;;;;;;34.83;20.27;;;;;;;13.66;90.45;99406.38;5057145;28;20020;-67
2021/07/20 01:08:41;;;;;;;37.17;20.40;;;;;;;13.70;90.56;99437.16;5058568;28;20037;-67
2021/07/20 01:11:07;;;;;;;43.88;21.98;;;;;;;13.68;90.92;99433.69;5060065;28;20017;-67
2021/07/20 01:13:34;;;;;;;42.35;21.05;;;;;;;13.62;91.51;99429.38;5059241;28;20083;-67
2021/07/20 01:16:00;;;;;;;36.15;21.38;;;;;;;13.64;91.73;99453.16;5063411;28;20078;-67
2021/07/20 01:18:27;;;;;;;38.03;20.98;;;;;;;13.73;91.26;99482.09;5052099;28;20435;-67
2021/07/20 01:20:54;;;;;;;39.33;20.92;;;;;;;13.69;91.04;99490.97;5058525;28;20021;-67
2021/07/20 01:23:43;;;;;;;37.97;20.52;;;;;;;13.65;91.06;99465.47;5059530;28;20016;-67
2021/07/20 01:26:08;;;;;;;36.08;20.30;;;;;;;13.55;91.17;99500.94;5050306;28;20056;-67
2021/07/20 01:28:35;;;;;;;37.25;19.73;;;;;;;13.59;90.85;99481.44;5056263;28;20012;-67
2021/07/20 01:31:06;;;;;;;30.58;18.02;;;;;;;13.58;89.62;99515.00;5058547;28;20024;-67
2021/07/20 01:33:34;;;;;;;37.70;18.80;;;;;;;13.48;89.79;99494.00;5060142;28;20216;-67
2021/07/20 01:36:02;;;;;;;37.35;21.02;;;;;;;13.37;90.73;99464.22;5061394;28;20052;-67
2021/07/20 01:38:30;;;;;;;34.78;19.92;;;;;;;13.35;90.52;99524.22;5060900;28;20033;-67
2021/07/20 01:41:00;;;;;;;36.30;18.88;;;;;;;13.42;90.50;99531.13;5060083;28;20028;-67
2021/07/20 01:43:27;;;;;;;32.17;18.98;;;;;;;13.41;90.17;99545.25;5054282;28;20023;-67
2021/07/20 01:45:55;;;;;;;36.00;18.70;;;;;;;13.45;90.18;99546.94;5050997;28;20025;-67
2021/07/20 01:48:25;;;;;;;33.58;19.00;;;;;;;13.43;90.37;99543.44;5052127;28;20027;-67
2021/07/20 01:50:52;;;;;;;39.80;21.27;;;;;;;13.38;91.14;99540.88;5061245;28;20017;-67
2021/07/20 01:53:19;;;;;;;31.52;18.80;;;;;;;13.44;90.93;99576.97;5051991;28;20344;-67
2021/07/20 01:55:44;;;;;;;33.63;19.23;;;;;;;13.35;90.37;99592.97;5047730;28;20347;-67
2021/07/20 01:58:10;;;;;;;38.75;21.42;;;;;;;13.25;90.56;99618.66;5061922;28;20029;-67
2021/07/20 02:00:35;;;;;;;31.92;18.65;;;;;;;13.22;90.68;99628.41;5063744;28;20035;-67
2021/07/20 02:10:54;;;;;;;31.58;18.35;;;;;;;13.09;90.74;99683.19;5051633;28;20311;-67
2021/07/20 02:13:21;;;;;;;29.08;17.80;;;;;;;12.98;90.68;99646.28;5052307;28;20092;-67
2021/07/20 02:15:48;;;;;;;36.63;19.40;;;;;;;12.96;90.82;99649.84;5057645;28;20255;-67
2021/07/20 02:18:15;;;;;;;37.20;19.65;;;;;;;12.89;90.82;99630.56;5056913;28;20096;-67
2021/07/20 02:20:42;;;;;;;35.08;19.05;;;;;;;12.81;90.90;99671.16;5058745;28;20016;-67
2021/07/20 02:23:09;;;;;;;34.38;19.48;;;;;;;12.82;90.61;99696.72;5060307;28;20335;-67
2021/07/20 02:25:37;;;;;;;29.80;17.30;;;;;;;12.75;89.89;99716.16;5060813;28;20307;-67
2021/07/20 02:28:05;;;;;;;32.85;19.27;;;;;;;12.72;90.82;99703.00;5057628;28;20013;-67
2021/07/20 02:30:31;;;;;;;33.53;19.65;;;;;;;12.76;90.48;99713.50;5057586;28;20021;-67
2021/07/20 02:32:59;;;;;;;38.67;19.30;;;;;;;12.70;90.53;99724.16;5058249;28;20331;-67
2021/07/20 02:35:26;;;;;;;30.52;17.00;;;;;;;12.69;90.18;99738.22;5058865;28;20212;-67
2021/07/20 02:37:54;;;;;;;35.03;19.40;;;;;;;12.60;90.42;99737.47;5059634;28;20020;-67
2021/07/20 02:40:23;;;;;;;34.72;18.30;;;;;;;12.60;90.65;99695.22;5060345;28;20114;-67
2021/07/20 02:42:50;;;;;;;34.20;18.02;;;;;;;12.66;91.11;99747.97;5058750;28;20039;-67
2021/07/20 02:45:18;;;;;;;29.50;17.88;;;;;;;12.53;90.26;99773.59;5060536;28;20017;-67
2021/07/20 02:47:45;;;;;;;29.55;18.00;;;;;;;12.45;90.47;99664.56;5061554;28;20029;-67
2021/07/20 02:50:14;;;;;;;32.28;18.80;;;;;;;12.45;91.13;99669.84;5056699;28;20016;-67
2021/07/20 02:52:46;;;;;;;31.88;17.73;;;;;;;12.37;90.87;99692.78;5061938;28;20255;-67
2021/07/20 02:55:13;;;;;;;36.45;19.80;;;;;;;12.43;91.53;99719.13;5063173;28;20143;-67
2021/07/20 02:57:40;;;;;;;36.50;18.48;;;;;;;12.43;91.37;99750.81;5059839;28;20075;-67
2021/07/20 03:00:11;;;;;;;35.13;19.08;;;;;;;12.44;91.08;99794.81;5061472;28;20032;-67
2021/07/20 03:02:40;;;;;;;34.25;18.30;;;;;;;12.41;91.24;99804.53;5049341;28;20024;-67
2021/07/20 03:05:06;;;;;;;39.03;19.27;;;;;;;12.45;90.77;99788.66;5051201;28;20221;-67
2021/07/20 03:07:33;;;;;;;31.13;18.08;;;;;;;12.35;90.96;99734.19;5058618;28;20047;-67
2021/07/20 03:10:00;;;;;;;31.05;18.40;;;;;;;12.27;91.12;99737.75;5061706;28;20059;-67
2021/07/20 03:12:28;;;;;;;31.67;18.45;;;;;;;12.28;91.74;99750.94;5057838;28;21144;-67
2021/07/20 03:14:56;;;;;;;39.65;17.52;;;;;;;12.31;91.11;99787.88;5061173;28;20022;-67
2021/07/20 03:17:24;;;;;;;39.70;18.52;;;;;;;12.33;90.97;99801.06;5062704;28;20331;-67
2021/07/20 03:19:51;;;;;;;32.10;18.08;;;;;;;12.29;91.17;99816.06;5061070;28;20239;-67
2021/07/20 03:22:20;;;;;;;28.27;15.77;;;;;;;12.31;91.00;99856.53;5050128;28;20208;-67
2021/07/20 03:24:46;;;;;;;29.30;17.00;;;;;;;12.29;90.99;99809.91;5051138;28;20029;-67
2021/07/20 03:27:12;;;;;;;31.50;16.63;;;;;;;12.33;90.74;99844.19;5049224;28;20013;-67
2021/07/20 03:29:42;;;;;;;31.20;16.65;;;;;;;12.33;90.11;99844.19;5052745;28;20032;-67
2021/07/20 03:32:16;;;;;;;30.17;16.88;;;;;;;12.08;90.03;99750.25;5049999;28;20131;-67
2021/07/20 03:34:44;;;;;;;30.75;16.67;;;;;;;12.13;90.14;99737.91;5061919;28;20084;-67
2021/07/20 03:37:10;;;;;;;28.48;16.45;;;;;;;12.02;90.52;99715.97;5062298;28;20071;-67
2021/07/20 03:39:36;;;;;;;24.95;15.05;;;;;;;12.01;90.25;99708.97;5063889;28;20039;-67
2021/07/20 03:42:02;;;;;;;27.20;14.82;;;;;;;11.91;90.46;99743.34;5061866;28;20040;-67
2021/07/20 03:44:30;;;;;;;26.45;14.00;;;;;;;11.88;90.51;99733.69;5061152;28;20342;-67
2021/07/20 03:46:57;;;;;;;27.50;16.63;;;;;;;11.89;90.84;99708.16;5062543;28;20047;-67
2021/07/20 03:49:26;;;;;;;28.27;17.45;;;;;;;11.94;90.41;99698.47;5053197;28;20078;-67
2021/07/20 03:51:53;;;;;;;29.52;17.10;;;;;;;11.90;90.97;99697.59;5049454;28;20202;-67
2021/07/20 03:54:20;;;;;;;30.85;17.00;;;;;;;11.88;91.09;99789.09;5050566;28;20020;-67
2021/07/20 03:56:48;;;;;;;34.72;17.30;;;;;;;11.96;90.58;99890.16;5050663;28;20045;-67
2021/07/20 03:59:14;;;;;;;32.15;16.80;;;;;;;11.93;90.79;99821.59;5051598;28;20071;-67
2021/07/20 04:01:44;;;;;;;31.77;16.65;;;;;;;11.99;90.53;99774.06;5053797;28;20220;-67
2021/07/20 04:04:13;;;;;;;28.27;16.75;;;;;;;11.98;90.35;99745.91;5056134;28;20017;-67
2021/07/20 04:06:40;;;;;;;25.95;15.32;;;;;;;11.96;90.29;99758.25;5050385;28;20367;-68
2021/07/20 04:09:08;;;;;;;27.52;15.02;;;;;;;11.90;90.84;99795.22;5050203;28;20041;-68
2021/07/20 04:11:35;;;;;;;26.10;14.35;;;;;;;11.96;91.15;99768.78;5053170;28;20022;-68
2021/07/20 04:14:03;;;;;;;26.05;13.80;;;;;;;11.94;90.57;99745.97;5054848;28;20028;-68
2021/07/20 04:16:29;;;;;;;23.30;14.27;;;;;;;11.82;90.13;99770.66;5056817;28;20041;-68
2021/07/20 04:18:54;;;;;;;26.02;14.10;;;;;;;11.87;90.41;99763.56;5050813;28;20029;-68
2021/07/20 04:21:20;;;;;;;22.13;14.02;;;;;;;11.88;90.63;99728.41;5046410;28;20021;-68
2021/07/20 04:23:49;;;;;;;22.27;13.32;;;;;;;11.89;90.49;99719.59;5046255;28;20021;-68
2021/07/20 04:26:15;;;;;;;25.35;14.52;;;;;;;11.95;90.77;99723.94;5046324;28;20025;-68
2021/07/20 04:28:41;;;;;;;24.33;14.98;;;;;;;12.05;90.75;99731.78;5046343;28;20025;-68
2021/07/20 04:31:08;;;;;;;26.92;15.75;;;;;;;12.13;90.45;99766.94;5046289;28;20032;-68
2021/07/20 04:33:35;;;;;;;26.98;14.45;;;;;;;12.20;90.32;99824.06;5046254;28;20049;-68
2021/07/20 04:36:02;;;;;;;27.42;15.32;;;;;;;12.14;90.69;99894.47;5046135;28;20024;-68
2021/07/20 04:38:32;;;;;;;27.25;16.52;;;;;;;12.07;90.47;99916.50;5045015;28;20032;-68
2021/07/20 04:40:59;;;;;;;27.52;15.15;;;;;;;12.13;90.87;99927.94;5046082;28;20029;-68
2021/07/20 04:43:25;;;;;;;32.83;15.05;;;;;;;12.29;90.58;99944.56;5045999;28;20235;-68
2021/07/20 04:45:54;;;;;;;26.13;17.42;;;;;;;12.33;90.23;99925.16;5045888;28;20033;-68
2021/07/20 04:48:19;;;;;;;29.00;16.35;;;;;;;12.49;90.51;99897.78;5045902;28;20033;-68
2021/07/20 04:50:45;;;;;;;29.58;16.48;;;;;;;12.85;89.62;99886.94;5045904;28;20032;-68
2021/07/20 04:53:13;;;;;;;34.05;15.23;;;;;;;13.28;88.75;99871.56;5045782;28;20080;-68
2021/07/20 04:55:40;;;;;;;23.05;14.38;;;;;;;13.86;86.18;99877.94;5045770;28;20084;-68
2021/07/20 04:58:06;;;;;;;26.83;15.00;;;;;;;14.44;83.58;99884.22;5045711;28;20063;-68
2021/07/20 05:00:35;;;;;;;23.30;13.68;;;;;;;14.83;81.27;99884.47;5045742;28;20021;-68
2021/07/20 05:03:03;;;;;;;20.67;11.07;;;;;;;15.20;79.30;99866.13;5045545;28;20045;-68
2021/07/20 05:05:37;;;;;;;24.23;14.50;;;;;;;15.29;79.69;99855.34;5045524;28;20049;-68
2021/07/20 05:08:03;;;;;;;24.88;14.45;;;;;;;15.74;77.80;99867.75;5045496;28;20047;-68
2021/07/20 05:10:28;;;;;;;20.60;13.63;;;;;;;16.02;76.47;99868.91;5045481;28;20321;-68
2021/07/20 05:12:54;;;;;;;24.58;13.73;;;;;;;16.37;76.03;99869.00;5045424;28;20120;-68
2021/07/20 05:15:20;;;;;;;22.42;13.65;;;;;;;16.46;75.02;99866.16;5045603;28;20049;-68
2021/07/20 05:17:48;;;;;;;22.42;13.80;;;;;;;16.82;74.50;99875.91;5045372;28;20081;-68
2021/07/20 05:20:16;;;;;;;21.42;13.95;;;;;;;16.81;74.28;99858.19;5045314;28;20053;-68
2021/07/20 05:22:43;;;;;;;23.05;15.00;;;;;;;17.25;72.60;99849.94;5045235;28;20251;-68
2021/07/20 05:25:10;;;;;;;23.13;13.70;;;;;;;17.54;72.40;99858.97;5045125;28;20071;-68
2021/07/20 05:27:38;;;;;;;23.08;13.27;;;;;;;17.66;72.00;99861.28;5045167;28;20028;-68
2021/07/20 05:30:06;;;;;;;23.67;14.68;;;;;;;17.98;71.69;99861.22;5045107;28;20201;-68
2021/07/20 05:32:34;;;;;;;25.10;15.55;;;;;;;18.15;71.25;99853.59;5045049;28;20093;-68
2021/07/20 05:35:01;;;;;;;27.42;15.15;;;;;;;18.26;71.00;99846.16;5044980;28;20031;-68
2021/07/20 05:37:27;;;;;;;23.15;14.15;;;;;;;18.75;69.52;99862.34;5044975;28;20075;-68
2021/07/20 05:39:53;;;;;;;25.13;14.57;;;;;;;18.96;69.27;99853.66;5044920;28;20021;-68
2021/07/20 05:42:19;;;;;;;22.83;14.32;;;;;;;19.32;68.43;99854.19;5044883;28;20029;-68
2021/07/20 05:44:45;;;;;;;27.10;15.13;;;;;;;19.63;67.50;99868.19;5044739;28;20045;-68
2021/07/20 05:47:12;;;;;;;25.00;15.65;;;;;;;19.81;66.52;99841.69;5044778;28;20031;-68
2021/07/20 05:49:38;;;;;;;22.25;14.13;;;;;;;19.96;66.89;99859.81;5044725;28;20160;-68
2021/07/20 05:52:04;;;;;;;23.52;15.13;;;;;;;19.98;65.26;99844.59;5044706;28;20084;-68
2021/07/20 05:54:30;;;;;;;26.58;15.82;;;;;;;19.94;67.33;99842.97;5044622;28;20313;-68
2021/07/20 05:56:57;;;;;;;24.63;15.57;;;;;;;20.40;65.95;99853.66;5044662;28;20026;-68
2021/07/20 05:59:23;;;;;;;32.15;16.00;;;;;;;20.63;66.56;99842.88;5044624;28;20071;-68
2021/07/20 06:01:51;;;;;;;25.55;15.60;;;;;;;21.47;64.94;99883.97;5044547;28;20021;-68
2021/07/20 06:04:18;;;;;;;25.88;15.73;;;;;;;21.35;63.98;99863.06;5044357;28;20032;-68
2021/07/20 06:06:44;;;;;;;28.30;15.20;;;;;;;21.70;62.60;99864.19;5044456;28;20041;-68
2021/07/20 06:09:09;;;;;;;29.60;15.50;;;;;;;22.17;62.71;99852.19;5044268;28;20068;-68
2021/07/20 06:11:35;;;;;;;25.75;15.80;;;;;;;22.43;61.64;99835.75;5044382;28;20224;-68
2021/07/20 06:14:02;;;;;;;22.48;15.43;;;;;;;22.88;61.72;99852.31;5044337;28;20029;-68
2021/07/20 06:16:28;;;;;;;25.83;15.85;;;;;;;22.80;60.05;99830.31;5044307;28;20224;-69
2021/07/20 06:18:53;;;;;;;27.20;17.23;;;;;;;23.22;59.89;99838.88;5044266;28;20032;-69
2021/07/20 06:21:22;;;;;;;26.52;18.30;;;;;;;23.12;60.14;99825.06;5044227;28;20265;-68
2021/07/20 06:23:49;;;;;;;30.70;17.52;;;;;;;22.96;59.05;99793.69;5044159;28;20025;-69
2021/07/20 06:26:20;;;;;;;31.63;18.05;;;;;;;23.17;57.24;99793.47;5044027;28;20053;-69
2021/07/20 06:28:46;;;;;;;30.90;17.85;;;;;;;23.52;57.57;99805.09;5043899;28;20025;-69
2021/07/20 06:31:16;;;;;;;30.17;18.83;;;;;;;23.77;56.85;99815.38;5044087;28;20224;-69
2021/07/20 06:33:43;;;;;;;26.95;17.75;;;;;;;23.90;57.42;99800.31;5044021;28;20069;-68
2021/07/20 06:36:09;;;;;;;27.48;18.02;;;;;;;23.96;55.47;99789.25;5044068;28;20021;-68
2021/07/20 06:38:35;;;;;;;30.05;18.35;;;;;;;24.07;54.95;99789.56;5044028;28;20032;-68
2021/07/20 06:41:00;;;;;;;34.20;17.42;;;;;;;24.03;55.31;99786.16;5043963;28;20076;-68
2021/07/20 06:43:26;;;;;;;34.65;18.13;;;;;;;23.84;57.17;99766.56;5043912;28;20067;-68
2021/07/20 06:45:53;;;;;;;28.40;18.10;;;;;;;24.31;55.27;99786.34;5043805;28;20021;-68
2021/07/20 06:48:20;;;;;;;28.52;17.15;;;;;;;24.23;56.46;99782.34;5043883;28;20329;-68
2021/07/20 06:50:47;;;;;;;28.08;17.95;;;;;;;24.56;55.41;99785.81;5043876;28;20336;-68
2021/07/20 06:53:14;;;;;;;26.42;16.92;;;;;;;24.76;54.61;99821.44;5042698;28;20044;-68
2021/07/20 06:56:00;;;;;;;29.63;17.65;;;;;;;24.85;54.14;99788.56;5043827;28;20021;-68
2021/07/20 06:58:27;;;;;;;24.33;16.27;;;;;;;25.37;52.37;99796.25;5043823;28;20217;-68
2021/07/20 07:00:55;;;;;;;30.02;16.45;;;;;;;25.16;52.07;99766.03;5043765;28;20024;-68
2021/07/20 07:03:24;;;;;;;24.63;16.67;;;;;;;25.43;50.83;99793.19;5042541;28;20220;-68
2021/07/20 07:05:53;;;;;;;25.73;16.00;;;;;;;25.62;50.39;99786.53;5043636;28;20071;-68
2021/07/20 07:08:22;;;;;;;27.08;16.27;;;;;;;25.35;51.29;99755.03;5043560;28;20340;-68
2021/07/20 07:10:48;;;;;;;26.17;15.57;;;;;;;25.21;52.57;99747.75;5043656;28;20064;-68
2021/07/20 07:13:16;;;;;;;24.45;16.70;;;;;;;25.72;50.58;99757.19;5043699;28;20025;-68
2021/07/20 07:15:43;;;;;;;23.83;16.33;;;;;;;25.67;51.49;99748.50;5043657;28;20021;-68
2021/07/20 07:18:08;;;;;;;21.65;16.00;;;;;;;25.76;49.87;99735.31;5043655;28;20017;-68
2021/07/20 07:20:34;;;;;;;23.65;16.45;;;;;;;25.72;51.92;99716.72;5043586;28;20213;-68
2021/07/20 07:23:01;;;;;;;27.73;16.05;;;;;;;26.31;49.46;99754.22;5043527;28;20021;-68
2021/07/20 07:25:28;;;;;;;27.20;15.50;;;;;;;26.36;50.51;99744.88;5043395;28;20060;-68
2021/07/20 07:27:54;;;;;;;26.02;15.65;;;;;;;26.42;48.98;99751.69;5043495;28;20052;-68
2021/07/20 07:30:20;;;;;;;26.35;15.00;;;;;;;25.93;48.70;99709.94;5043480;28;20120;-68
2021/07/20 07:32:47;;;;;;;26.08;15.60;;;;;;;26.46;50.00;99742.44;5043465;28;20029;-68
2021/07/20 07:35:13;;;;;;;23.75;15.35;;;;;;;26.83;47.03;99736.31;5042419;28;20017;-68
2021/07/20 07:37:40;;;;;;;24.73;15.43;;;;;;;26.82;46.99;99719.25;5043445;28;20021;-68
2021/07/20 07:40:08;;;;;;;24.20;14.48;;;;;;;27.50;46.36;99741.53;5045803;28;20044;-68
2021/07/20 07:42:35;;;;;;;23.63;14.23;;;;;;;26.51;50.84;99692.53;5047167;28;20017;-68
2021/07/20 07:45:06;;;;;;;23.70;15.70;;;;;;;26.96;46.77;99699.38;5047049;28;20028;-68
2021/07/20 07:47:33;;;;;;;21.33;15.23;;;;;;;27.18;48.48;99705.03;5047005;28;20026;-68
2021/07/20 07:49:59;;;;;;;28.67;15.45;;;;;;;26.92;46.38;99684.34;5047078;28;20034;-68
2021/07/20 07:52:24;;;;;;;23.70;15.85;;;;;;;27.09;46.18;99684.03;5046999;28;20025;-68
2021/07/20 07:54:50;;;;;;;22.73;14.23;;;;;;;27.57;44.08;99688.72;5046962;28;20084;-68
2021/07/20 07:57:18;;;;;;;20.92;15.75;;;;;;;27.49;43.99;99665.91;5046909;28;20021;-68
2021/07/20 07:59:48;;;;;;;23.85;15.13;;;;;;;27.12;46.00;99656.81;5045670;28;20075;-68
2021/07/20 08:02:19;;;;;;;23.02;15.45;;;;;;;27.48;46.25;99662.31;5046788;28;20261;-68
2021/07/20 08:04:45;;;;;;;;;;;;;;;27.89;43.34;99692.69;5047079;28;20025;-68
2021/07/20 08:07:11;;;;;;;23.75;14.63;;;;;;;27.89;44.08;99668.34;5046579;28;19912;-68
2021/07/20 08:09:39;;;;;;;21.45;14.23;;;;;;;28.00;42.31;99662.97;5046707;28;20017;-68
2021/07/20 08:12:06;;;;;;;22.02;15.02;;;;;;;28.57;41.90;99837.44;5045631;28;20029;-68
2021/07/20 08:14:32;;;;;;;23.35;15.68;;;;;;;27.55;42.73;99709.59;5046503;28;20317;-68
2021/07/20 08:17:00;;;;;;;26.42;15.23;;;;;;;28.00;42.98;99684.63;5046532;28;20027;-68
2021/07/20 08:19:27;;;;;;;24.48;16.33;;;;;;;26.66;45.39;99623.13;5046486;28;20274;-68
2021/07/20 08:21:59;;;;;;;25.13;15.40;;;;;;;27.58;44.00;99649.84;5046409;28;20029;-68
2021/07/20 08:24:25;;;;;;;23.35;15.13;;;;;;;28.24;42.29;99658.47;5045224;28;20025;-68
2021/07/20 08:26:56;;;;;;;21.05;15.02;;;;;;;28.43;40.82;99649.78;5046349;28;20026;-68
2021/07/20 08:29:26;;;;;;;24.80;15.27;;;;;;;27.82;41.30;99621.03;5046325;28;20021;-68
2021/07/20 08:32:07;;;;;;;21.15;15.55;;;;;;;27.82;39.67;99615.59;5046228;28;20194;-68
2021/07/20 08:34:38;;;;;;;23.92;16.10;;;;;;;27.71;38.25;99596.59;5045438;28;20356;-68
2021/07/20 08:37:04;;;;;;;21.27;15.10;;;;;;;27.65;39.20;99583.50;5046249;28;20029;-68
2021/07/20 08:39:30;;;;;;;24.23;15.68;;;;;;;27.61;40.74;99571.19;5046107;28;20025;-68
2021/07/20 08:42:08;;;;;;;19.90;14.48;;;;;;;28.20;40.52;99784.22;5046056;28;20028;-68
2021/07/20 08:44:51;;;;;;;22.63;15.13;;;;;;;27.67;41.73;99632.97;5046026;28;20040;-68
2021/07/20 08:47:27;;;;;;;22.25;14.88;;;;;;;28.68;41.08;99661.41;5045957;28;20343;-68
2021/07/20 08:50:21;;;;;;;20.73;14.60;;;;;;;28.02;42.82;99593.34;5045595;28;20025;-68
2021/07/20 08:52:58;;;;;;;19.35;13.98;;;;;;;28.41;40.28;99606.56;5045897;28;20025;-68
2021/07/20 08:55:27;;;;;;;18.75;14.07;;;;;;;28.01;42.36;99572.69;5045859;28;20044;-68
2021/07/20 08:58:01;;;;;;;21.70;14.88;;;;;;;28.80;39.64;99590.00;5045761;28;20232;-68
2021/07/20 09:00:38;;;;;;;22.40;14.23;;;;;;;29.24;39.87;99627.16;5044606;28;20062;-68
2021/07/20 09:03:24;;;;;;;22.75;15.07;;;;;;;29.23;40.97;99588.31;5045661;28;20213;-68
2021/07/20 09:05:53;;;;;;;21.05;15.13;;;;;;;29.67;39.76;99594.75;5045527;28;20328;-68
2021/07/20 09:08:33;;;;;;;19.40;14.13;;;;;;;29.36;37.84;99571.06;5045414;28;20045;-68
2021/07/20 09:11:25;;;;;;;20.60;13.98;;;;;;;29.60;39.42;99563.63;5045563;28;20025;-68
2021/07/20 09:13:57;;;;;;;20.15;14.48;;;;;;;29.47;40.01;99558.34;5044316;28;20029;-68
2021/07/20 09:16:22;;;;;;;20.75;15.02;;;;;;;30.08;37.54;99571.31;5045423;28;20424;-68
2021/07/20 09:18:54;;;;;;;19.00;14.10;;;;;;;29.23;38.23;99513.38;5044204;28;20025;-68
2021/07/20 09:21:24;;;;;;;19.38;14.02;;;;;;;28.91;39.30;99522.22;5044192;28;20032;-68
2021/07/20 09:24:29;;;;;;;21.20;13.45;;;;;;;29.56;37.96;99545.88;5045177;28;20085;-68
2021/07/20 09:27:06;;;;;;;20.00;13.80;;;;;;;29.29;37.49;99529.16;5045233;28;20025;-68
2021/07/20 09:29:37;;;;;;;21.00;13.55;;;;;;;29.10;37.17;99502.66;5045144;28;20022;-68
2021/07/20 09:32:06;;;;;;;19.27;14.85;;;;;;;29.36;39.34;99514.09;5045151;28;20101;-68
2021/07/20 09:35:00;;;;;;;22.17;14.32;;;;;;;29.31;41.10;99497.34;5045052;28;20028;-68
2021/07/20 09:37:55;;;;;;;23.38;15.02;;;;;;;29.63;37.75;99503.69;5045032;28;20021;-68
2021/07/20 09:40:32;;;;;;;20.05;14.10;;;;;;;29.61;37.18;99494.81;5019225;28;20037;-68
2021/07/20 09:43:07;;;;;;;19.35;13.90;;;;;;;29.98;35.84;99493.44;5044963;28;20344;-68
2021/07/20 09:45:44;;;;;;;18.83;14.52;;;;;;;29.08;37.88;99456.69;5044827;28;20025;-68
2021/07/20 09:48:22;;;;;;;19.30;13.77;;;;;;;29.33;38.04;99462.81;5044880;28;20048;-68
2021/07/20 09:51:10;;;;;;;18.52;13.48;;;;;;;28.17;38.23;99397.28;5043811;28;20047;-68
2021/07/20 09:53:54;;;;;;;20.70;14.15;;;;;;;28.53;40.40;99429.59;5013986;28;20229;-68
2021/07/20 09:56:24;;;;;;;21.42;13.85;;;;;;;28.66;38.19;99415.94;5044725;28;20021;-68
2021/07/20 09:59:31;;;;;;;20.10;14.18;;;;;;;29.43;38.97;99436.66;5043523;28;20025;-69
2021/07/20 10:02:00;;;;;;;20.25;14.52;;;;;;;29.54;39.67;99444.78;5042841;28;20348;-69
2021/07/20 10:04:37;;;;;;;18.75;14.27;;;;;;;28.95;38.82;99399.00;5044388;28;20029;-69
2021/07/20 10:07:13;;;;;;;21.67;14.20;;;;;;;29.11;38.53;99383.22;5044517;28;20032;-69
2021/07/20 10:09:52;;;;;;;17.95;13.23;;;;;;;29.31;37.92;99410.53;5044495;28;20056;-69
2021/07/20 10:12:39;;;;;;;19.45;13.55;;;;;;;28.83;37.78;99372.94;5044442;28;20021;-69
2021/07/20 10:15:08;;;;;;;20.52;13.75;;;;;;;29.15;37.36;99384.72;5044456;28;20029;-69
2021/07/20 10:17:46;;;;;;;16.05;12.98;;;;;;;28.92;36.29;99361.31;5044290;28;20049;-69
2021/07/20 10:20:20;;;;;;;19.98;14.05;;;;;;;29.44;37.22;99378.69;5043116;28;20029;-69
2021/07/20 10:22:51;;;;;;;17.35;12.48;;;;;;;29.02;38.12;99334.31;5043129;28;20029;-69
2021/07/20 10:25:16;;;;;;;;;;;;;;;29.07;36.02;99345.66;5044573;28;20033;-69
2021/07/20 10:27:47;;;;;;;18.10;12.57;;;;;;;29.59;39.09;99352.97;5044143;28;20103;-69
2021/07/20 10:30:15;;;;;;;17.98;12.75;;;;;;;29.16;37.61;99340.34;5044188;28;20072;-69
2021/07/20 10:32:53;;;;;;;18.90;13.32;;;;;;;28.37;39.92;99307.19;5044141;28;20078;-69
2021/07/20 10:35:25;;;;;;;19.38;12.98;;;;;;;28.29;40.15;99306.94;5044094;28;20395;-69
2021/07/20 10:37:55;;;;;;;21.65;13.52;;;;;;;28.41;38.33;99311.34;5044095;28;20032;-69
2021/07/20 10:40:24;;;;;;;16.30;13.23;;;;;;;28.03;39.34;99289.22;5043953;28;20083;-69
2021/07/20 10:43:18;;;;;;;22.58;13.07;;;;;;;27.88;38.91;99284.16;5043936;28;20035;-69
2021/07/20 10:45:46;;;;;;;19.40;12.65;;;;;;;28.76;39.00;99317.50;5043892;28;20036;-69
2021/07/20 10:48:26;;;;;;;20.92;13.05;;;;;;;28.35;36.41;99283.94;5043860;28;20247;-69
2021/07/20 10:51:16;;;;;;;21.20;13.05;;;;;;;28.14;38.23;99269.41;5043919;28;20029;-69
2021/07/20 10:54:06;;;;;;;23.10;11.90;;;;;;;28.73;39.02;99287.09;5043855;28;20248;-69
2021/07/20 10:56:54;;;;;;;19.10;13.05;;;;;;;28.29;36.16;99258.22;5043849;28;20029;-69
2021/07/20 10:59:32;;;;;;;17.58;12.15;;;;;;;28.52;38.64;99270.75;5043837;28;20017;-69
2021/07/20 11:02:16;;;;;;;18.05;12.38;;;;;;;27.84;38.88;99229.38;5043807;28;20314;-69
2021/07/20 11:04:59;;;;;;;21.10;13.10;;;;;;;28.32;38.86;99252.50;5043648;28;20018;-69
2021/07/20 11:07:29;;;;;;;20.23;13.35;;;;;;;28.29;37.12;99236.56;5043480;28;20022;-69
2021/07/20 11:09:56;;;;;;;20.25;12.85;;;;;;;28.36;37.70;99247.72;5043770;28;20313;-69
2021/07/20 11:12:27;;;;;;;19.67;12.25;;;;;;;28.31;37.90;99229.13;5043678;28;20313;-69
2021/07/20 11:14:56;;;;;;;16.88;12.77;;;;;;;28.46;38.12;99233.34;5047540;28;20049;-69
2021/07/20 11:17:23;;;;;;;16.15;11.75;;;;;;;28.19;37.74;99240.13;5047646;28;20025;-69
2021/07/20 11:19:51;;;;;;;18.95;12.45;;;;;;;28.17;38.22;99232.13;5047554;28;20083;-69
2021/07/20 11:22:17;;;;;;;17.40;11.82;;;;;;;28.24;35.45;99233.34;5047537;28;20021;-69
2021/07/20 11:24:44;;;;;;;15.68;11.52;;;;;;;28.75;36.09;99249.88;5047400;28;20073;-69
2021/07/20 11:27:13;;;;;;;19.50;12.65;;;;;;;28.61;37.04;99221.25;5047469;28;20029;-69
2021/07/20 11:29:39;;;;;;;17.05;12.00;;;;;;;28.30;38.85;99223.84;5047411;28;20029;-69
2021/07/20 11:32:07;;;;;;;18.17;12.45;;;;;;;27.46;39.15;99185.59;5047382;28;20067;-69
2021/07/20 11:34:40;;;;;;;19.38;12.35;;;;;;;28.14;38.61;99216.13;5047334;28;20308;-69